sensor_id;sensor_type;location;lat;lon;timestamp;P1;durP1;ratioP1;P2;durP2;ratioP2
19235;SDS011;9752;54.270;12.470;2023-09-19T00:02:55;8.00;;;7.30;;
19235;SDS011;9752;54.270;12.470;2023-09-19T00:07:59;8.43;;;7.30;;
19235;SDS011;9752;54.270;12.470;2023-09-19T00:13:02;11.60;;;7.87;;
19235;SDS011;9752;54.270;12.470;2023-09-19T00:18:05;8.00;;;7.30;;
19235;SDS011;9752;54.270;12.470;2023-09-19T00:23:08;8.30;;;7.30;;
19235;SDS011;9752;54.270;12.470;2023-09-19T00:28:11;7.70;;;7.13;;
19235;SDS011;9752;54.270;12.470;2023-09-19T00:33:15;8.37;;;7.57;;
19235;SDS011;9752;54.270;12.470;2023-09-19T00:38:17;7.63;;;6.87;;
19235;SDS011;9752;54.270;12.470;2023-09-19T00:43:22;6.80;;;6.20;;
19235;SDS011;9752;54.270;12.470;2023-09-19T00:48:24;7.13;;;6.60;;
19235;SDS011;9752;54.270;12.470;2023-09-19T00:53:28;6.77;;;6.27;;
19235;SDS011;9752;54.270;12.470;2023-09-19T00:58:33;6.73;;;6.23;;
19235;SDS011;9752;54.270;12.470;2023-09-19T01:03:36;6.60;;;6.30;;
19235;SDS011;9752;54.270;12.470;2023-09-19T01:08:38;7.13;;;6.73;;
19235;SDS011;9752;54.270;12.470;2023-09-19T01:13:47;7.07;;;6.47;;
19235;SDS011;9752;54.270;12.470;2023-09-19T01:19:00;7.73;;;7.10;;
19235;SDS011;9752;54.270;12.470;2023-09-19T01:30:01;8.73;;;7.90;;
19235;SDS011;9752;54.270;12.470;2023-09-19T01:35:09;8.47;;;7.90;;
19235;SDS011;9752;54.270;12.470;2023-09-19T01:40:14;8.10;;;7.70;;
19235;SDS011;9752;54.270;12.470;2023-09-19T01:45:23;8.13;;;7.70;;
19235;SDS011;9752;54.270;12.470;2023-09-19T01:50:32;8.20;;;7.50;;
19235;SDS011;9752;54.270;12.470;2023-09-19T01:55:41;7.13;;;6.57;;
19235;SDS011;9752;54.270;12.470;2023-09-19T02:00:51;8.50;;;7.70;;
19235;SDS011;9752;54.270;12.470;2023-09-19T02:05:54;8.33;;;7.63;;
19235;SDS011;9752;54.270;12.470;2023-09-19T02:10:56;7.83;;;7.07;;
19235;SDS011;9752;54.270;12.470;2023-09-19T02:15:59;8.10;;;7.50;;
19235;SDS011;9752;54.270;12.470;2023-09-19T02:21:01;7.40;;;6.90;;
19235;SDS011;9752;54.270;12.470;2023-09-19T02:26:04;7.30;;;6.70;;
19235;SDS011;9752;54.270;12.470;2023-09-19T02:31:07;9.77;;;6.90;;
19235;SDS011;9752;54.270;12.470;2023-09-19T02:36:09;6.50;;;6.10;;
19235;SDS011;9752;54.270;12.470;2023-09-19T02:41:11;7.00;;;6.33;;
19235;SDS011;9752;54.270;12.470;2023-09-19T02:46:14;9.57;;;6.70;;
19235;SDS011;9752;54.270;12.470;2023-09-19T02:51:17;6.97;;;6.30;;
19235;SDS011;9752;54.270;12.470;2023-09-19T02:56:19;6.60;;;6.10;;
19235;SDS011;9752;54.270;12.470;2023-09-19T03:01:22;8.80;;;6.47;;
19235;SDS011;9752;54.270;12.470;2023-09-19T03:06:24;7.87;;;6.30;;
19235;SDS011;9752;54.270;12.470;2023-09-19T03:11:26;11.73;;;7.73;;
19235;SDS011;9752;54.270;12.470;2023-09-19T03:16:33;6.63;;;6.13;;
19235;SDS011;9752;54.270;12.470;2023-09-19T03:21:35;6.37;;;5.97;;
19235;SDS011;9752;54.270;12.470;2023-09-19T03:26:37;6.43;;;6.03;;
19235;SDS011;9752;54.270;12.470;2023-09-19T03:31:40;10.10;;;6.00;;
19235;SDS011;9752;54.270;12.470;2023-09-19T03:36:43;6.67;;;6.13;;
19235;SDS011;9752;54.270;12.470;2023-09-19T03:41:45;6.30;;;5.80;;
19235;SDS011;9752;54.270;12.470;2023-09-19T03:46:48;8.97;;;6.50;;
19235;SDS011;9752;54.270;12.470;2023-09-19T03:51:50;7.37;;;6.70;;
19235;SDS011;9752;54.270;12.470;2023-09-19T03:56:52;7.60;;;7.00;;
19235;SDS011;9752;54.270;12.470;2023-09-19T04:01:55;6.97;;;6.30;;
19235;SDS011;9752;54.270;12.470;2023-09-19T04:06:58;7.20;;;6.60;;
19235;SDS011;9752;54.270;12.470;2023-09-19T04:12:01;6.67;;;6.07;;
19235;SDS011;9752;54.270;12.470;2023-09-19T04:17:05;6.83;;;6.23;;
19235;SDS011;9752;54.270;12.470;2023-09-19T04:22:06;6.70;;;5.93;;
19235;SDS011;9752;54.270;12.470;2023-09-19T04:27:09;11.47;;;6.87;;
19235;SDS011;9752;54.270;12.470;2023-09-19T04:32:13;6.53;;;5.70;;
19235;SDS011;9752;54.270;12.470;2023-09-19T04:37:17;9.40;;;6.27;;
19235;SDS011;9752;54.270;12.470;2023-09-19T04:42:18;7.20;;;6.57;;
19235;SDS011;9752;54.270;12.470;2023-09-19T04:47:23;8.63;;;6.47;;
19235;SDS011;9752;54.270;12.470;2023-09-19T04:52:25;8.90;;;6.90;;
19235;SDS011;9752;54.270;12.470;2023-09-19T04:57:26;10.97;;;7.37;;
19235;SDS011;9752;54.270;12.470;2023-09-19T05:02:30;6.70;;;6.10;;
19235;SDS011;9752;54.270;12.470;2023-09-19T05:07:32;7.50;;;6.80;;
19235;SDS011;9752;54.270;12.470;2023-09-19T05:12:34;6.13;;;5.53;;
19235;SDS011;9752;54.270;12.470;2023-09-19T05:17:37;6.97;;;6.27;;
19235;SDS011;9752;54.270;12.470;2023-09-19T05:22:39;9.73;;;6.93;;
19235;SDS011;9752;54.270;12.470;2023-09-19T05:27:41;7.40;;;6.10;;
19235;SDS011;9752;54.270;12.470;2023-09-19T05:32:44;6.90;;;6.30;;
19235;SDS011;9752;54.270;12.470;2023-09-19T05:37:45;11.20;;;6.70;;
19235;SDS011;9752;54.270;12.470;2023-09-19T05:42:47;8.03;;;6.33;;
19235;SDS011;9752;54.270;12.470;2023-09-19T05:47:52;11.87;;;6.70;;
19235;SDS011;9752;54.270;12.470;2023-09-19T05:52:56;7.33;;;6.67;;
19235;SDS011;9752;54.270;12.470;2023-09-19T05:57:58;9.83;;;6.97;;
19235;SDS011;9752;54.270;12.470;2023-09-19T06:03:01;12.73;;;7.97;;
19235;SDS011;9752;54.270;12.470;2023-09-19T06:08:03;7.77;;;7.00;;
19235;SDS011;9752;54.270;12.470;2023-09-19T06:13:07;7.77;;;6.97;;
19235;SDS011;9752;54.270;12.470;2023-09-19T06:18:12;7.53;;;6.80;;
19235;SDS011;9752;54.270;12.470;2023-09-19T06:23:20;8.37;;;7.53;;
19235;SDS011;9752;54.270;12.470;2023-09-19T06:28:23;7.50;;;6.80;;
19235;SDS011;9752;54.270;12.470;2023-09-19T06:33:27;9.63;;;8.40;;
19235;SDS011;9752;54.270;12.470;2023-09-19T06:38:28;6.87;;;6.30;;
19235;SDS011;9752;54.270;12.470;2023-09-19T06:43:30;8.80;;;8.00;;
19235;SDS011;9752;54.270;12.470;2023-09-19T06:48:35;9.70;;;8.60;;
19235;SDS011;9752;54.270;12.470;2023-09-19T06:53:37;9.27;;;8.33;;
19235;SDS011;9752;54.270;12.470;2023-09-19T06:58:40;11.77;;;8.37;;
19235;SDS011;9752;54.270;12.470;2023-09-19T07:03:45;11.53;;;7.47;;
19235;SDS011;9752;54.270;12.470;2023-09-19T07:08:46;8.10;;;7.40;;
19235;SDS011;9752;54.270;12.470;2023-09-19T07:13:50;9.10;;;8.20;;
19235;SDS011;9752;54.270;12.470;2023-09-19T07:18:53;11.57;;;8.40;;
19235;SDS011;9752;54.270;12.470;2023-09-19T07:23:56;12.87;;;9.70;;
19235;SDS011;9752;54.270;12.470;2023-09-19T07:28:58;10.97;;;9.60;;
19235;SDS011;9752;54.270;12.470;2023-09-19T07:34:01;11.60;;;10.50;;
19235;SDS011;9752;54.270;12.470;2023-09-19T07:39:05;11.33;;;10.27;;
19235;SDS011;9752;54.270;12.470;2023-09-19T07:44:07;11.53;;;10.43;;
19235;SDS011;9752;54.270;12.470;2023-09-19T07:49:11;10.37;;;9.47;;
19235;SDS011;9752;54.270;12.470;2023-09-19T07:54:12;10.97;;;9.93;;
19235;SDS011;9752;54.270;12.470;2023-09-19T07:59:14;11.40;;;10.17;;
19235;SDS011;9752;54.270;12.470;2023-09-19T08:04:18;13.13;;;11.77;;
19235;SDS011;9752;54.270;12.470;2023-09-19T08:09:19;13.47;;;12.07;;
19235;SDS011;9752;54.270;12.470;2023-09-19T08:14:21;12.90;;;11.80;;
19235;SDS011;9752;54.270;12.470;2023-09-19T08:19:26;14.60;;;13.17;;
19235;SDS011;9752;54.270;12.470;2023-09-19T08:24:28;13.47;;;12.53;;
19235;SDS011;9752;54.270;12.470;2023-09-19T08:29:31;13.87;;;12.60;;
19235;SDS011;9752;54.270;12.470;2023-09-19T08:34:34;13.43;;;12.23;;
19235;SDS011;9752;54.270;12.470;2023-09-19T08:39:38;14.17;;;12.97;;
19235;SDS011;9752;54.270;12.470;2023-09-19T08:44:40;13.37;;;12.30;;
19235;SDS011;9752;54.270;12.470;2023-09-19T08:49:48;14.13;;;12.70;;
19235;SDS011;9752;54.270;12.470;2023-09-19T08:55:00;13.93;;;12.63;;
19235;SDS011;9752;54.270;12.470;2023-09-19T09:00:05;12.23;;;11.30;;
19235;SDS011;9752;54.270;12.470;2023-09-19T09:05:11;13.10;;;12.13;;
19235;SDS011;9752;54.270;12.470;2023-09-19T09:10:14;13.43;;;12.13;;
19235;SDS011;9752;54.270;12.470;2023-09-19T09:15:16;13.60;;;12.13;;
19235;SDS011;9752;54.270;12.470;2023-09-19T09:20:23;12.73;;;10.97;;
19235;SDS011;9752;54.270;12.470;2023-09-19T09:25:29;12.80;;;11.60;;
19235;SDS011;9752;54.270;12.470;2023-09-19T09:30:48;12.80;;;11.60;;
19235;SDS011;9752;54.270;12.470;2023-09-19T09:35:53;13.13;;;11.93;;
19235;SDS011;9752;54.270;12.470;2023-09-19T09:40:56;12.77;;;11.80;;
19235;SDS011;9752;54.270;12.470;2023-09-19T09:46:07;12.57;;;11.63;;
19235;SDS011;9752;54.270;12.470;2023-09-19T09:51:32;14.33;;;13.03;;
19235;SDS011;9752;54.270;12.470;2023-09-19T09:56:33;13.47;;;12.23;;
19235;SDS011;9752;54.270;12.470;2023-09-19T10:01:45;14.90;;;13.60;;
19235;SDS011;9752;54.270;12.470;2023-09-19T10:06:49;14.40;;;13.40;;
19235;SDS011;9752;54.270;12.470;2023-09-19T10:12:03;14.20;;;12.87;;
19235;SDS011;9752;54.270;12.470;2023-09-19T10:17:09;14.40;;;13.03;;
19235;SDS011;9752;54.270;12.470;2023-09-19T10:22:12;14.70;;;13.53;;
19235;SDS011;9752;54.270;12.470;2023-09-19T10:27:16;14.40;;;13.20;;
19235;SDS011;9752;54.270;12.470;2023-09-19T10:32:19;15.37;;;13.87;;
19235;SDS011;9752;54.270;12.470;2023-09-19T10:37:25;14.33;;;13.23;;
19235;SDS011;9752;54.270;12.470;2023-09-19T10:42:28;15.23;;;13.83;;
19235;SDS011;9752;54.270;12.470;2023-09-19T10:47:33;13.70;;;12.83;;
19235;SDS011;9752;54.270;12.470;2023-09-19T10:52:40;13.03;;;12.00;;
19235;SDS011;9752;54.270;12.470;2023-09-19T10:57:44;14.43;;;13.17;;
19235;SDS011;9752;54.270;12.470;2023-09-19T11:08:21;14.93;;;13.60;;
19235;SDS011;9752;54.270;12.470;2023-09-19T11:13:23;13.87;;;12.80;;
19235;SDS011;9752;54.270;12.470;2023-09-19T11:29:36;14.80;;;13.60;;
19235;SDS011;9752;54.270;12.470;2023-09-19T11:34:40;14.40;;;13.30;;
19235;SDS011;9752;54.270;12.470;2023-09-19T11:39:50;15.10;;;13.63;;
19235;SDS011;9752;54.270;12.470;2023-09-19T11:50:46;13.93;;;12.93;;
19235;SDS011;9752;54.270;12.470;2023-09-19T11:55:50;15.10;;;13.90;;
19235;SDS011;9752;54.270;12.470;2023-09-19T12:00:53;14.40;;;13.37;;
19235;SDS011;9752;54.270;12.470;2023-09-19T12:05:57;15.03;;;13.57;;
19235;SDS011;9752;54.270;12.470;2023-09-19T12:11:01;14.97;;;13.63;;
19235;SDS011;9752;54.270;12.470;2023-09-19T12:16:05;15.57;;;14.13;;
19235;SDS011;9752;54.270;12.470;2023-09-19T12:21:21;16.93;;;14.17;;
19235;SDS011;9752;54.270;12.470;2023-09-19T12:26:28;15.90;;;14.40;;
19235;SDS011;9752;54.270;12.470;2023-09-19T12:31:30;14.80;;;13.40;;
19235;SDS011;9752;54.270;12.470;2023-09-19T12:36:36;13.63;;;12.53;;
19235;SDS011;9752;54.270;12.470;2023-09-19T12:41:41;16.20;;;13.43;;
19235;SDS011;9752;54.270;12.470;2023-09-19T12:46:42;14.17;;;13.00;;
19235;SDS011;9752;54.270;12.470;2023-09-19T12:51:45;14.40;;;13.33;;
19235;SDS011;9752;54.270;12.470;2023-09-19T12:56:49;15.20;;;13.67;;
19235;SDS011;9752;54.270;12.470;2023-09-19T13:01:50;14.53;;;13.07;;
19235;SDS011;9752;54.270;12.470;2023-09-19T13:07:06;14.03;;;12.73;;
19235;SDS011;9752;54.270;12.470;2023-09-19T13:17:44;13.53;;;12.13;;
19235;SDS011;9752;54.270;12.470;2023-09-19T13:22:45;13.80;;;12.50;;
19235;SDS011;9752;54.270;12.470;2023-09-19T13:27:51;16.10;;;13.87;;
19235;SDS011;9752;54.270;12.470;2023-09-19T13:33:04;13.87;;;12.77;;
19235;SDS011;9752;54.270;12.470;2023-09-19T13:38:06;14.27;;;12.93;;
19235;SDS011;9752;54.270;12.470;2023-09-19T13:43:12;15.00;;;13.70;;
19235;SDS011;9752;54.270;12.470;2023-09-19T13:48:14;14.70;;;13.53;;
19235;SDS011;9752;54.270;12.470;2023-09-19T13:53:16;15.87;;;13.07;;
19235;SDS011;9752;54.270;12.470;2023-09-19T13:58:19;14.53;;;13.03;;
19235;SDS011;9752;54.270;12.470;2023-09-19T14:03:23;13.60;;;12.30;;
19235;SDS011;9752;54.270;12.470;2023-09-19T14:08:24;14.90;;;12.93;;
19235;SDS011;9752;54.270;12.470;2023-09-19T14:13:27;12.97;;;12.17;;
19235;SDS011;9752;54.270;12.470;2023-09-19T14:18:29;14.10;;;12.80;;
19235;SDS011;9752;54.270;12.470;2023-09-19T14:23:34;13.73;;;12.67;;
19235;SDS011;9752;54.270;12.470;2023-09-19T14:28:37;13.33;;;12.30;;
19235;SDS011;9752;54.270;12.470;2023-09-19T14:33:40;14.20;;;13.03;;
19235;SDS011;9752;54.270;12.470;2023-09-19T14:38:41;19.53;;;13.17;;
19235;SDS011;9752;54.270;12.470;2023-09-19T14:43:45;14.77;;;13.43;;
19235;SDS011;9752;54.270;12.470;2023-09-19T14:48:47;13.53;;;12.10;;
19235;SDS011;9752;54.270;12.470;2023-09-19T14:53:49;14.17;;;13.17;;
19235;SDS011;9752;54.270;12.470;2023-09-19T14:58:52;15.37;;;13.80;;
19235;SDS011;9752;54.270;12.470;2023-09-19T15:03:53;13.87;;;13.00;;
19235;SDS011;9752;54.270;12.470;2023-09-19T15:08:55;15.57;;;14.37;;
19235;SDS011;9752;54.270;12.470;2023-09-19T15:13:59;16.40;;;14.67;;
19235;SDS011;9752;54.270;12.470;2023-09-19T15:19:03;14.13;;;13.17;;
19235;SDS011;9752;54.270;12.470;2023-09-19T15:24:05;15.10;;;14.00;;
19235;SDS011;9752;54.270;12.470;2023-09-19T15:29:11;13.63;;;12.73;;
19235;SDS011;9752;54.270;12.470;2023-09-19T15:34:13;14.77;;;13.53;;
19235;SDS011;9752;54.270;12.470;2023-09-19T15:39:16;14.67;;;13.50;;
19235;SDS011;9752;54.270;12.470;2023-09-19T15:44:20;15.20;;;13.83;;
19235;SDS011;9752;54.270;12.470;2023-09-19T15:49:21;15.10;;;14.00;;
19235;SDS011;9752;54.270;12.470;2023-09-19T15:54:23;15.00;;;13.80;;
19235;SDS011;9752;54.270;12.470;2023-09-19T15:59:29;15.73;;;14.53;;
19235;SDS011;9752;54.270;12.470;2023-09-19T16:04:30;14.43;;;13.03;;
19235;SDS011;9752;54.270;12.470;2023-09-19T16:09:33;14.73;;;13.63;;
19235;SDS011;9752;54.270;12.470;2023-09-19T16:14:36;14.33;;;12.90;;
19235;SDS011;9752;54.270;12.470;2023-09-19T16:19:38;15.17;;;13.40;;
19235;SDS011;9752;54.270;12.470;2023-09-19T16:24:40;14.50;;;13.30;;
19235;SDS011;9752;54.270;12.470;2023-09-19T16:29:43;14.23;;;13.23;;
19235;SDS011;9752;54.270;12.470;2023-09-19T16:34:45;14.33;;;13.20;;
19235;SDS011;9752;54.270;12.470;2023-09-19T16:39:47;15.13;;;13.90;;
19235;SDS011;9752;54.270;12.470;2023-09-19T16:44:50;14.57;;;13.37;;
19235;SDS011;9752;54.270;12.470;2023-09-19T16:49:51;14.87;;;13.53;;
19235;SDS011;9752;54.270;12.470;2023-09-19T16:54:53;15.53;;;14.10;;
19235;SDS011;9752;54.270;12.470;2023-09-19T16:59:56;15.23;;;14.07;;
19235;SDS011;9752;54.270;12.470;2023-09-19T17:04:58;15.00;;;13.80;;
19235;SDS011;9752;54.270;12.470;2023-09-19T17:10:00;15.20;;;13.80;;
19235;SDS011;9752;54.270;12.470;2023-09-19T17:15:03;14.07;;;13.07;;
19235;SDS011;9752;54.270;12.470;2023-09-19T17:20:06;14.23;;;13.27;;
19235;SDS011;9752;54.270;12.470;2023-09-19T17:25:08;15.83;;;14.00;;
19235;SDS011;9752;54.270;12.470;2023-09-19T17:30:11;19.23;;;14.60;;
19235;SDS011;9752;54.270;12.470;2023-09-19T17:35:15;17.80;;;15.50;;
19235;SDS011;9752;54.270;12.470;2023-09-19T17:40:18;15.00;;;13.70;;
19235;SDS011;9752;54.270;12.470;2023-09-19T17:45:21;15.07;;;14.07;;
19235;SDS011;9752;54.270;12.470;2023-09-19T17:50:22;15.67;;;14.30;;
19235;SDS011;9752;54.270;12.470;2023-09-19T17:55:24;15.53;;;14.17;;
19235;SDS011;9752;54.270;12.470;2023-09-19T18:00:27;14.93;;;13.80;;
19235;SDS011;9752;54.270;12.470;2023-09-19T18:05:29;13.97;;;13.00;;
19235;SDS011;9752;54.270;12.470;2023-09-19T18:10:30;14.80;;;13.37;;
19235;SDS011;9752;54.270;12.470;2023-09-19T18:15:35;14.73;;;13.20;;
19235;SDS011;9752;54.270;12.470;2023-09-19T18:20:38;14.83;;;13.50;;
19235;SDS011;9752;54.270;12.470;2023-09-19T18:25:41;14.30;;;12.90;;
19235;SDS011;9752;54.270;12.470;2023-09-19T18:30:44;14.47;;;13.37;;
19235;SDS011;9752;54.270;12.470;2023-09-19T18:35:47;13.53;;;12.30;;
19235;SDS011;9752;54.270;12.470;2023-09-19T18:40:48;13.00;;;12.00;;
19235;SDS011;9752;54.270;12.470;2023-09-19T18:45:58;14.73;;;13.27;;
19235;SDS011;9752;54.270;12.470;2023-09-19T18:51:03;13.87;;;12.67;;
19235;SDS011;9752;54.270;12.470;2023-09-19T18:56:06;14.53;;;12.93;;
19235;SDS011;9752;54.270;12.470;2023-09-19T19:01:11;13.67;;;12.37;;
19235;SDS011;9752;54.270;12.470;2023-09-19T19:06:16;14.33;;;13.00;;
19235;SDS011;9752;54.270;12.470;2023-09-19T19:11:17;13.07;;;12.07;;
19235;SDS011;9752;54.270;12.470;2023-09-19T19:16:22;12.93;;;11.93;;
19235;SDS011;9752;54.270;12.470;2023-09-19T19:21:26;14.57;;;13.03;;
19235;SDS011;9752;54.270;12.470;2023-09-19T19:26:28;12.90;;;11.90;;
19235;SDS011;9752;54.270;12.470;2023-09-19T19:31:33;14.30;;;13.07;;
19235;SDS011;9752;54.270;12.470;2023-09-19T19:36:37;14.30;;;13.00;;
19235;SDS011;9752;54.270;12.470;2023-09-19T19:41:39;14.07;;;12.97;;
19235;SDS011;9752;54.270;12.470;2023-09-19T19:46:42;14.73;;;13.20;;
19235;SDS011;9752;54.270;12.470;2023-09-19T19:51:44;16.57;;;13.70;;
19235;SDS011;9752;54.270;12.470;2023-09-19T19:56:46;14.60;;;13.30;;
19235;SDS011;9752;54.270;12.470;2023-09-19T20:01:49;15.40;;;14.10;;
19235;SDS011;9752;54.270;12.470;2023-09-19T20:06:51;14.17;;;13.07;;
19235;SDS011;9752;54.270;12.470;2023-09-19T20:11:53;15.50;;;13.77;;
19235;SDS011;9752;54.270;12.470;2023-09-19T20:16:57;13.70;;;12.67;;
19235;SDS011;9752;54.270;12.470;2023-09-19T20:22:00;13.50;;;12.57;;
19235;SDS011;9752;54.270;12.470;2023-09-19T20:27:02;15.73;;;13.70;;
19235;SDS011;9752;54.270;12.470;2023-09-19T20:32:08;13.37;;;12.07;;
19235;SDS011;9752;54.270;12.470;2023-09-19T20:37:11;14.03;;;12.90;;
19235;SDS011;9752;54.270;12.470;2023-09-19T20:42:12;14.43;;;13.30;;
19235;SDS011;9752;54.270;12.470;2023-09-19T20:47:15;14.20;;;13.00;;
19235;SDS011;9752;54.270;12.470;2023-09-19T20:52:17;14.53;;;13.27;;
19235;SDS011;9752;54.270;12.470;2023-09-19T20:57:19;14.03;;;12.90;;
19235;SDS011;9752;54.270;12.470;2023-09-19T21:02:22;14.27;;;13.20;;
19235;SDS011;9752;54.270;12.470;2023-09-19T21:07:24;14.40;;;13.40;;
19235;SDS011;9752;54.270;12.470;2023-09-19T21:12:29;14.67;;;13.47;;
19235;SDS011;9752;54.270;12.470;2023-09-19T21:17:32;15.20;;;14.00;;
19235;SDS011;9752;54.270;12.470;2023-09-19T21:22:34;14.33;;;13.13;;
19235;SDS011;9752;54.270;12.470;2023-09-19T21:27:35;14.23;;;13.23;;
19235;SDS011;9752;54.270;12.470;2023-09-19T21:32:38;14.63;;;13.53;;
19235;SDS011;9752;54.270;12.470;2023-09-19T21:37:40;14.77;;;13.40;;
19235;SDS011;9752;54.270;12.470;2023-09-19T21:42:42;14.73;;;13.60;;
19235;SDS011;9752;54.270;12.470;2023-09-19T21:47:45;15.67;;;14.50;;
19235;SDS011;9752;54.270;12.470;2023-09-19T21:52:47;14.63;;;13.63;;
19235;SDS011;9752;54.270;12.470;2023-09-19T21:57:48;15.07;;;13.77;;
19235;SDS011;9752;54.270;12.470;2023-09-19T22:02:51;14.53;;;13.60;;
19235;SDS011;9752;54.270;12.470;2023-09-19T22:07:54;14.60;;;13.50;;
19235;SDS011;9752;54.270;12.470;2023-09-19T22:12:57;14.20;;;13.23;;
19235;SDS011;9752;54.270;12.470;2023-09-19T22:18:01;13.87;;;13.10;;
19235;SDS011;9752;54.270;12.470;2023-09-19T22:23:05;13.70;;;12.70;;
19235;SDS011;9752;54.270;12.470;2023-09-19T22:28:12;13.93;;;13.03;;
19235;SDS011;9752;54.270;12.470;2023-09-19T22:33:16;14.57;;;13.30;;
19235;SDS011;9752;54.270;12.470;2023-09-19T22:38:19;14.87;;;13.80;;
19235;SDS011;9752;54.270;12.470;2023-09-19T22:43:21;13.63;;;12.73;;
19235;SDS011;9752;54.270;12.470;2023-09-19T22:48:28;14.50;;;13.57;;
19235;SDS011;9752;54.270;12.470;2023-09-19T22:53:29;13.60;;;12.80;;
19235;SDS011;9752;54.270;12.470;2023-09-19T22:58:36;14.13;;;13.13;;
19235;SDS011;9752;54.270;12.470;2023-09-19T23:03:41;13.90;;;13.10;;
19235;SDS011;9752;54.270;12.470;2023-09-19T23:08:46;14.53;;;13.47;;
19235;SDS011;9752;54.270;12.470;2023-09-19T23:13:49;14.33;;;13.43;;
19235;SDS011;9752;54.270;12.470;2023-09-19T23:18:53;13.20;;;12.20;;
19235;SDS011;9752;54.270;12.470;2023-09-19T23:23:57;12.53;;;11.67;;
19235;SDS011;9752;54.270;12.470;2023-09-19T23:28:59;11.07;;;10.37;;
19235;SDS011;9752;54.270;12.470;2023-09-19T23:34:04;10.93;;;10.23;;
19235;SDS011;9752;54.270;12.470;2023-09-19T23:39:07;10.90;;;9.90;;
19235;SDS011;9752;54.270;12.470;2023-09-19T23:44:13;10.13;;;9.47;;
19235;SDS011;9752;54.270;12.470;2023-09-19T23:49:16;10.07;;;9.20;;
19235;SDS011;9752;54.270;12.470;2023-09-19T23:54:18;10.70;;;9.67;;
19235;SDS011;9752;54.270;12.470;2023-09-19T23:59:27;9.57;;;8.67;;
